Terminal Aerodrome Forecast
Issued by NWS Corpus Christi, TX

Home | Current Version | Previous Version | Text Only | Print | Product List | Glossary On
Versions: 1 2 3 4 5 6 7 8 9 10 11 12
000
FTUS44 KCRP 272300
TAFCRP
TAF
KCRP 272338Z 2800/2824 35020G25KT P6SM OVC015
     FM280300 36012KT P6SM VCSH OVC012
      TEMPO 2813/2817 3SM SHRA OVC010
     FM281700 35015G25KT P6SM OVC025
     FM282200 34014KT P6SM SCT030 BKN040=

USA.gov is the U.S. government's official web portal to all federal, state and local government web resources and services.